Eston, Canada
Current Conditions -  °F | °C
As of 4:00 AM on Friday 31 Oct 2014 (Local Time) from CYKY Reporting Station
Overcast Overcast  
Wind Chill: 24°   Ceiling: 900
Heat Index: 36°   Visibility: 15mi
Dew Point: 30°   Wind: 23mph
Humidity: 81%   Direction: 160°SSE
Pressure: 29.97"   Gusts: 30mph
Location:  51.15°N, 108.75°W
Report Text: CYKY 311000Z 16020G26KT 15SM OVC009 02/M01 A2997 RMK SC8 SLP176
Loading
Personal Weather Stations






























Interactive Weather Map
Tropical Storm Tracking
New forecast layout! Learn more

10-Day Weather Forecast

Advertisements
Track Severe Weather on mobile